sensor_id;sensor_type;location;lat;lon;timestamp;P1;durP1;ratioP1;P2;durP2;ratioP2
9160;SDS011;4615;51.340;8.288;2023-08-06T00:01:21;3.50;;;3.20;;
9160;SDS011;4615;51.340;8.288;2023-08-06T00:03:48;4.15;;;3.10;;
9160;SDS011;4615;51.340;8.288;2023-08-06T00:06:14;3.55;;;3.20;;
9160;SDS011;4615;51.340;8.288;2023-08-06T00:08:42;3.38;;;3.10;;
9160;SDS011;4615;51.340;8.288;2023-08-06T00:11:08;4.80;;;3.33;;
9160;SDS011;4615;51.340;8.288;2023-08-06T00:13:34;3.50;;;3.17;;
9160;SDS011;4615;51.340;8.288;2023-08-06T00:16:10;4.00;;;3.53;;
9160;SDS011;4615;51.340;8.288;2023-08-06T00:18:36;3.40;;;3.10;;
9160;SDS011;4615;51.340;8.288;2023-08-06T00:21:03;3.72;;;3.42;;
9160;SDS011;4615;51.340;8.288;2023-08-06T00:23:29;4.32;;;3.28;;
9160;SDS011;4615;51.340;8.288;2023-08-06T00:25:57;3.75;;;3.28;;
9160;SDS011;4615;51.340;8.288;2023-08-06T00:28:23;3.80;;;3.33;;
9160;SDS011;4615;51.340;8.288;2023-08-06T00:30:52;3.95;;;3.60;;
9160;SDS011;4615;51.340;8.288;2023-08-06T00:33:18;3.85;;;3.33;;
9160;SDS011;4615;51.340;8.288;2023-08-06T00:35:44;3.50;;;3.20;;
9160;SDS011;4615;51.340;8.288;2023-08-06T00:38:11;4.35;;;3.40;;
9160;SDS011;4615;51.340;8.288;2023-08-06T00:40:38;6.07;;;3.65;;
9160;SDS011;4615;51.340;8.288;2023-08-06T00:43:05;4.03;;;3.45;;
9160;SDS011;4615;51.340;8.288;2023-08-06T00:45:33;4.05;;;3.65;;
9160;SDS011;4615;51.340;8.288;2023-08-06T00:48:00;4.00;;;3.60;;
9160;SDS011;4615;51.340;8.288;2023-08-06T00:50:27;3.80;;;3.50;;
9160;SDS011;4615;51.340;8.288;2023-08-06T00:52:54;3.88;;;3.53;;
9160;SDS011;4615;51.340;8.288;2023-08-06T00:55:20;4.10;;;3.70;;
9160;SDS011;4615;51.340;8.288;2023-08-06T00:57:47;4.25;;;3.25;;
9160;SDS011;4615;51.340;8.288;2023-08-06T01:00:15;4.13;;;3.30;;
9160;SDS011;4615;51.340;8.288;2023-08-06T01:02:41;3.85;;;3.40;;
9160;SDS011;4615;51.340;8.288;2023-08-06T01:05:08;3.75;;;3.35;;
9160;SDS011;4615;51.340;8.288;2023-08-06T01:07:37;3.75;;;3.35;;
9160;SDS011;4615;51.340;8.288;2023-08-06T01:10:15;3.42;;;3.13;;
9160;SDS011;4615;51.340;8.288;2023-08-06T01:12:45;4.78;;;3.50;;
9160;SDS011;4615;51.340;8.288;2023-08-06T01:15:12;3.60;;;3.30;;
9160;SDS011;4615;51.340;8.288;2023-08-06T01:17:42;3.40;;;3.10;;
9160;SDS011;4615;51.340;8.288;2023-08-06T01:20:09;3.70;;;3.00;;
9160;SDS011;4615;51.340;8.288;2023-08-06T01:22:37;3.60;;;3.28;;
9160;SDS011;4615;51.340;8.288;2023-08-06T01:25:03;3.80;;;3.25;;
9160;SDS011;4615;51.340;8.288;2023-08-06T01:27:30;3.97;;;3.60;;
9160;SDS011;4615;51.340;8.288;2023-08-06T01:30:01;4.03;;;3.70;;
9160;SDS011;4615;51.340;8.288;2023-08-06T01:32:29;4.32;;;3.63;;
9160;SDS011;4615;51.340;8.288;2023-08-06T01:34:55;3.92;;;3.60;;
9160;SDS011;4615;51.340;8.288;2023-08-06T01:37:22;4.10;;;3.70;;
9160;SDS011;4615;51.340;8.288;2023-08-06T01:39:50;4.18;;;3.78;;
9160;SDS011;4615;51.340;8.288;2023-08-06T01:42:17;4.43;;;3.55;;
9160;SDS011;4615;51.340;8.288;2023-08-06T01:44:43;4.23;;;3.83;;
9160;SDS011;4615;51.340;8.288;2023-08-06T01:47:10;3.47;;;3.17;;
9160;SDS011;4615;51.340;8.288;2023-08-06T01:49:36;4.28;;;3.78;;
9160;SDS011;4615;51.340;8.288;2023-08-06T01:52:03;3.97;;;3.65;;
9160;SDS011;4615;51.340;8.288;2023-08-06T01:54:29;4.90;;;3.63;;
9160;SDS011;4615;51.340;8.288;2023-08-06T01:56:57;4.00;;;3.67;;
9160;SDS011;4615;51.340;8.288;2023-08-06T01:59:24;3.58;;;3.28;;
9160;SDS011;4615;51.340;8.288;2023-08-06T02:01:50;4.35;;;3.30;;
9160;SDS011;4615;51.340;8.288;2023-08-06T02:04:17;3.95;;;3.50;;
9160;SDS011;4615;51.340;8.288;2023-08-06T02:06:43;4.07;;;3.67;;
9160;SDS011;4615;51.340;8.288;2023-08-06T02:09:09;3.78;;;3.47;;
9160;SDS011;4615;51.340;8.288;2023-08-06T02:11:36;4.30;;;3.90;;
9160;SDS011;4615;51.340;8.288;2023-08-06T02:14:04;3.95;;;3.65;;
9160;SDS011;4615;51.340;8.288;2023-08-06T02:16:30;4.25;;;3.85;;
9160;SDS011;4615;51.340;8.288;2023-08-06T02:18:56;3.88;;;3.58;;
9160;SDS011;4615;51.340;8.288;2023-08-06T02:21:23;4.15;;;3.78;;
9160;SDS011;4615;51.340;8.288;2023-08-06T02:23:49;5.32;;;3.75;;
9160;SDS011;4615;51.340;8.288;2023-08-06T02:26:15;4.20;;;3.80;;
9160;SDS011;4615;51.340;8.288;2023-08-06T02:28:42;5.22;;;3.60;;
9160;SDS011;4615;51.340;8.288;2023-08-06T02:31:09;5.35;;;4.18;;
9160;SDS011;4615;51.340;8.288;2023-08-06T02:33:36;4.57;;;4.13;;
9160;SDS011;4615;51.340;8.288;2023-08-06T02:36:02;4.82;;;4.22;;
9160;SDS011;4615;51.340;8.288;2023-08-06T02:38:29;4.38;;;3.97;;
9160;SDS011;4615;51.340;8.288;2023-08-06T02:40:56;4.28;;;3.80;;
9160;SDS011;4615;51.340;8.288;2023-08-06T02:43:22;4.40;;;4.00;;
9160;SDS011;4615;51.340;8.288;2023-08-06T02:45:48;5.75;;;4.45;;
9160;SDS011;4615;51.340;8.288;2023-08-06T02:48:16;4.85;;;4.45;;
9160;SDS011;4615;51.340;8.288;2023-08-06T02:50:43;5.57;;;4.30;;
9160;SDS011;4615;51.340;8.288;2023-08-06T02:53:09;4.70;;;4.28;;
9160;SDS011;4615;51.340;8.288;2023-08-06T02:55:36;4.37;;;4.07;;
9160;SDS011;4615;51.340;8.288;2023-08-06T02:58:02;5.03;;;4.60;;
9160;SDS011;4615;51.340;8.288;2023-08-06T03:00:28;5.67;;;4.60;;
9160;SDS011;4615;51.340;8.288;2023-08-06T03:02:55;4.72;;;4.32;;
9160;SDS011;4615;51.340;8.288;2023-08-06T03:05:23;4.57;;;4.03;;
9160;SDS011;4615;51.340;8.288;2023-08-06T03:07:49;5.30;;;4.40;;
9160;SDS011;4615;51.340;8.288;2023-08-06T03:10:15;5.05;;;4.57;;
9160;SDS011;4615;51.340;8.288;2023-08-06T03:12:42;6.45;;;4.93;;
9160;SDS011;4615;51.340;8.288;2023-08-06T03:15:09;5.20;;;4.70;;
9160;SDS011;4615;51.340;8.288;2023-08-06T03:17:35;4.82;;;4.43;;
9160;SDS011;4615;51.340;8.288;2023-08-06T03:20:01;6.80;;;4.68;;
9160;SDS011;4615;51.340;8.288;2023-08-06T03:22:29;4.57;;;4.05;;
9160;SDS011;4615;51.340;8.288;2023-08-06T03:24:55;4.97;;;4.40;;
9160;SDS011;4615;51.340;8.288;2023-08-06T03:27:22;5.22;;;4.72;;
9160;SDS011;4615;51.340;8.288;2023-08-06T03:29:48;5.47;;;4.60;;
9160;SDS011;4615;51.340;8.288;2023-08-06T03:32:15;5.68;;;4.85;;
9160;SDS011;4615;51.340;8.288;2023-08-06T03:34:41;4.88;;;4.30;;
9160;SDS011;4615;51.340;8.288;2023-08-06T03:37:08;5.10;;;4.70;;
9160;SDS011;4615;51.340;8.288;2023-08-06T03:39:35;5.07;;;4.57;;
9160;SDS011;4615;51.340;8.288;2023-08-06T03:42:02;4.40;;;4.00;;
9160;SDS011;4615;51.340;8.288;2023-08-06T03:44:28;4.60;;;4.30;;
9160;SDS011;4615;51.340;8.288;2023-08-06T03:46:55;4.22;;;3.83;;
9160;SDS011;4615;51.340;8.288;2023-08-06T03:49:22;4.80;;;4.40;;
9160;SDS011;4615;51.340;8.288;2023-08-06T03:51:48;4.40;;;3.80;;
9160;SDS011;4615;51.340;8.288;2023-08-06T03:54:14;3.70;;;3.40;;
9160;SDS011;4615;51.340;8.288;2023-08-06T03:56:42;3.90;;;3.50;;
9160;SDS011;4615;51.340;8.288;2023-08-06T03:59:08;3.72;;;3.00;;
9160;SDS011;4615;51.340;8.288;2023-08-06T04:01:35;3.42;;;3.13;;
9160;SDS011;4615;51.340;8.288;2023-08-06T04:04:01;3.35;;;3.05;;
9160;SDS011;4615;51.340;8.288;2023-08-06T04:06:28;3.50;;;3.20;;
9160;SDS011;4615;51.340;8.288;2023-08-06T04:08:54;3.53;;;3.22;;
9160;SDS011;4615;51.340;8.288;2023-08-06T04:11:20;3.50;;;3.20;;
9160;SDS011;4615;51.340;8.288;2023-08-06T04:13:48;4.18;;;3.40;;
9160;SDS011;4615;51.340;8.288;2023-08-06T04:16:15;3.30;;;3.00;;
9160;SDS011;4615;51.340;8.288;2023-08-06T04:18:41;2.83;;;2.60;;
9160;SDS011;4615;51.340;8.288;2023-08-06T04:21:07;3.08;;;2.88;;
9160;SDS011;4615;51.340;8.288;2023-08-06T04:23:34;3.30;;;3.10;;
9160;SDS011;4615;51.340;8.288;2023-08-06T04:26:00;3.25;;;2.95;;
9160;SDS011;4615;51.340;8.288;2023-08-06T04:28:26;3.10;;;2.80;;
9160;SDS011;4615;51.340;8.288;2023-08-06T04:30:54;3.20;;;2.90;;
9160;SDS011;4615;51.340;8.288;2023-08-06T04:33:22;3.35;;;3.05;;
9160;SDS011;4615;51.340;8.288;2023-08-06T04:35:53;3.30;;;3.00;;
9160;SDS011;4615;51.340;8.288;2023-08-06T04:38:19;3.45;;;3.15;;
9160;SDS011;4615;51.340;8.288;2023-08-06T04:40:45;3.60;;;3.30;;
9160;SDS011;4615;51.340;8.288;2023-08-06T04:43:12;3.22;;;3.03;;
9160;SDS011;4615;51.340;8.288;2023-08-06T04:45:38;3.72;;;3.40;;
9160;SDS011;4615;51.340;8.288;2023-08-06T04:48:12;3.53;;;3.22;;
9160;SDS011;4615;51.340;8.288;2023-08-06T04:50:42;3.70;;;3.40;;
9160;SDS011;4615;51.340;8.288;2023-08-06T04:53:09;3.40;;;3.10;;
9160;SDS011;4615;51.340;8.288;2023-08-06T04:55:35;3.13;;;2.90;;
9160;SDS011;4615;51.340;8.288;2023-08-06T04:58:01;3.55;;;3.25;;
9160;SDS011;4615;51.340;8.288;2023-08-06T05:00:28;3.63;;;3.30;;
9160;SDS011;4615;51.340;8.288;2023-08-06T05:02:54;3.80;;;3.50;;
9160;SDS011;4615;51.340;8.288;2023-08-06T05:05:22;4.55;;;4.00;;
9160;SDS011;4615;51.340;8.288;2023-08-06T05:07:49;4.33;;;3.93;;
9160;SDS011;4615;51.340;8.288;2023-08-06T05:10:15;4.30;;;3.90;;
9160;SDS011;4615;51.340;8.288;2023-08-06T05:12:42;4.47;;;4.07;;
9160;SDS011;4615;51.340;8.288;2023-08-06T05:15:08;5.18;;;4.20;;
9160;SDS011;4615;51.340;8.288;2023-08-06T05:17:35;4.88;;;4.38;;
9160;SDS011;4615;51.340;8.288;2023-08-06T05:20:01;4.68;;;4.32;;
9160;SDS011;4615;51.340;8.288;2023-08-06T05:22:29;4.93;;;4.20;;
9160;SDS011;4615;51.340;8.288;2023-08-06T05:24:55;4.27;;;3.90;;
9160;SDS011;4615;51.340;8.288;2023-08-06T05:27:22;5.65;;;3.85;;
9160;SDS011;4615;51.340;8.288;2023-08-06T05:29:48;4.80;;;3.80;;
9160;SDS011;4615;51.340;8.288;2023-08-06T05:32:15;5.68;;;4.07;;
9160;SDS011;4615;51.340;8.288;2023-08-06T05:34:41;4.10;;;3.70;;
9160;SDS011;4615;51.340;8.288;2023-08-06T05:37:07;4.35;;;3.95;;
9160;SDS011;4615;51.340;8.288;2023-08-06T05:39:35;5.53;;;3.80;;
9160;SDS011;4615;51.340;8.288;2023-08-06T05:42:02;4.77;;;3.97;;
9160;SDS011;4615;51.340;8.288;2023-08-06T05:44:28;3.95;;;3.65;;
9160;SDS011;4615;51.340;8.288;2023-08-06T05:46:55;3.90;;;3.40;;
9160;SDS011;4615;51.340;8.288;2023-08-06T05:49:21;3.70;;;3.40;;
9160;SDS011;4615;51.340;8.288;2023-08-06T05:51:47;4.20;;;3.80;;
9160;SDS011;4615;51.340;8.288;2023-08-06T05:54:14;4.03;;;3.42;;
9160;SDS011;4615;51.340;8.288;2023-08-06T05:56:42;3.47;;;3.10;;
9160;SDS011;4615;51.340;8.288;2023-08-06T05:59:08;4.03;;;3.60;;
9160;SDS011;4615;51.340;8.288;2023-08-06T06:01:34;4.88;;;3.60;;
9160;SDS011;4615;51.340;8.288;2023-08-06T06:04:01;3.40;;;3.10;;
9160;SDS011;4615;51.340;8.288;2023-08-06T06:06:27;3.33;;;3.03;;
9160;SDS011;4615;51.340;8.288;2023-08-06T06:08:54;3.58;;;3.08;;
9160;SDS011;4615;51.340;8.288;2023-08-06T06:11:20;3.45;;;3.15;;
9160;SDS011;4615;51.340;8.288;2023-08-06T06:13:48;3.40;;;2.90;;
9160;SDS011;4615;51.340;8.288;2023-08-06T06:16:15;3.58;;;2.90;;
9160;SDS011;4615;51.340;8.288;2023-08-06T06:18:41;3.88;;;3.05;;
9160;SDS011;4615;51.340;8.288;2023-08-06T06:21:07;2.80;;;2.50;;
9160;SDS011;4615;51.340;8.288;2023-08-06T06:23:34;3.13;;;2.83;;
9160;SDS011;4615;51.340;8.288;2023-08-06T06:26:00;2.90;;;2.50;;
9160;SDS011;4615;51.340;8.288;2023-08-06T06:28:26;4.05;;;2.40;;
9160;SDS011;4615;51.340;8.288;2023-08-06T06:30:54;2.53;;;2.20;;
9160;SDS011;4615;51.340;8.288;2023-08-06T06:33:25;2.53;;;2.10;;
9160;SDS011;4615;51.340;8.288;2023-08-06T06:35:52;2.30;;;1.80;;
9160;SDS011;4615;51.340;8.288;2023-08-06T06:38:18;2.55;;;2.00;;
9160;SDS011;4615;51.340;8.288;2023-08-06T06:40:52;3.05;;;1.90;;
9160;SDS011;4615;51.340;8.288;2023-08-06T06:43:19;2.65;;;1.90;;
9160;SDS011;4615;51.340;8.288;2023-08-06T06:45:45;2.10;;;1.90;;
9160;SDS011;4615;51.340;8.288;2023-08-06T06:48:13;2.90;;;2.10;;
9160;SDS011;4615;51.340;8.288;2023-08-06T06:50:39;2.95;;;1.98;;
9160;SDS011;4615;51.340;8.288;2023-08-06T06:53:06;2.47;;;2.00;;
9160;SDS011;4615;51.340;8.288;2023-08-06T06:55:32;2.72;;;2.10;;
9160;SDS011;4615;51.340;8.288;2023-08-06T06:57:59;3.50;;;2.10;;
9160;SDS011;4615;51.340;8.288;2023-08-06T07:00:25;4.30;;;2.03;;
9160;SDS011;4615;51.340;8.288;2023-08-06T07:02:51;3.53;;;2.30;;
9160;SDS011;4615;51.340;8.288;2023-08-06T07:05:19;2.90;;;2.08;;
9160;SDS011;4615;51.340;8.288;2023-08-06T07:07:46;2.50;;;1.75;;
9160;SDS011;4615;51.340;8.288;2023-08-06T07:10:12;2.53;;;1.90;;
9160;SDS011;4615;51.340;8.288;2023-08-06T07:12:38;3.17;;;1.95;;
9160;SDS011;4615;51.340;8.288;2023-08-06T07:15:05;2.10;;;1.80;;
9160;SDS011;4615;51.340;8.288;2023-08-06T07:17:32;1.93;;;1.60;;
9160;SDS011;4615;51.340;8.288;2023-08-06T07:19:59;2.40;;;1.70;;
9160;SDS011;4615;51.340;8.288;2023-08-06T07:22:26;1.83;;;1.70;;
9160;SDS011;4615;51.340;8.288;2023-08-06T07:24:53;3.10;;;1.73;;
9160;SDS011;4615;51.340;8.288;2023-08-06T07:27:19;1.65;;;1.55;;
9160;SDS011;4615;51.340;8.288;2023-08-06T07:29:45;2.65;;;1.60;;
9160;SDS011;4615;51.340;8.288;2023-08-06T07:32:13;2.13;;;1.50;;
9160;SDS011;4615;51.340;8.288;2023-08-06T07:34:39;2.50;;;1.60;;
9160;SDS011;4615;51.340;8.288;2023-08-06T07:37:05;1.50;;;1.40;;
9160;SDS011;4615;51.340;8.288;2023-08-06T07:39:33;1.63;;;1.52;;
9160;SDS011;4615;51.340;8.288;2023-08-06T07:42:00;2.60;;;1.60;;
9160;SDS011;4615;51.340;8.288;2023-08-06T07:44:27;1.58;;;1.40;;
9160;SDS011;4615;51.340;8.288;2023-08-06T07:46:53;1.80;;;1.57;;
9160;SDS011;4615;51.340;8.288;2023-08-06T07:49:21;2.03;;;1.40;;
9160;SDS011;4615;51.340;8.288;2023-08-06T07:51:47;2.40;;;1.60;;
9160;SDS011;4615;51.340;8.288;2023-08-06T07:54:13;2.00;;;1.50;;
9160;SDS011;4615;51.340;8.288;2023-08-06T07:56:41;4.05;;;1.60;;
9160;SDS011;4615;51.340;8.288;2023-08-06T07:59:07;1.65;;;1.52;;
9160;SDS011;4615;51.340;8.288;2023-08-06T08:01:34;2.25;;;1.63;;
9160;SDS011;4615;51.340;8.288;2023-08-06T08:04:00;2.17;;;1.58;;
9160;SDS011;4615;51.340;8.288;2023-08-06T08:06:27;2.35;;;1.50;;
9160;SDS011;4615;51.340;8.288;2023-08-06T08:08:53;2.10;;;1.40;;
9160;SDS011;4615;51.340;8.288;2023-08-06T08:11:20;2.17;;;1.50;;
9160;SDS011;4615;51.340;8.288;2023-08-06T08:13:48;2.28;;;1.52;;
9160;SDS011;4615;51.340;8.288;2023-08-06T08:16:14;1.75;;;1.50;;
9160;SDS011;4615;51.340;8.288;2023-08-06T08:18:40;2.55;;;1.30;;
9160;SDS011;4615;51.340;8.288;2023-08-06T08:21:07;1.88;;;1.20;;
9160;SDS011;4615;51.340;8.288;2023-08-06T08:23:33;2.30;;;1.60;;
9160;SDS011;4615;51.340;8.288;2023-08-06T08:25:59;1.38;;;1.27;;
9160;SDS011;4615;51.340;8.288;2023-08-06T08:28:27;1.90;;;1.67;;
9160;SDS011;4615;51.340;8.288;2023-08-06T08:30:54;1.50;;;1.23;;
9160;SDS011;4615;51.340;8.288;2023-08-06T08:33:21;2.40;;;1.20;;
9160;SDS011;4615;51.340;8.288;2023-08-06T08:35:47;2.00;;;1.10;;
9160;SDS011;4615;51.340;8.288;2023-08-06T08:38:14;1.83;;;1.27;;
9160;SDS011;4615;51.340;8.288;2023-08-06T08:40:42;1.83;;;1.15;;
9160;SDS011;4615;51.340;8.288;2023-08-06T08:43:11;1.35;;;1.25;;
9160;SDS011;4615;51.340;8.288;2023-08-06T08:45:39;1.30;;;1.20;;
9160;SDS011;4615;51.340;8.288;2023-08-06T08:48:07;2.15;;;1.38;;
9160;SDS011;4615;51.340;8.288;2023-08-06T08:50:34;1.55;;;1.27;;
9160;SDS011;4615;51.340;8.288;2023-08-06T08:53:00;1.30;;;1.10;;
9160;SDS011;4615;51.340;8.288;2023-08-06T08:55:27;1.30;;;1.13;;
9160;SDS011;4615;51.340;8.288;2023-08-06T08:57:53;1.67;;;1.20;;
9160;SDS011;4615;51.340;8.288;2023-08-06T09:00:20;1.75;;;1.20;;
9160;SDS011;4615;51.340;8.288;2023-08-06T09:02:46;1.92;;;1.30;;
9160;SDS011;4615;51.340;8.288;2023-08-06T09:05:14;1.30;;;1.20;;
9160;SDS011;4615;51.340;8.288;2023-08-06T09:07:41;1.25;;;1.10;;
9160;SDS011;4615;51.340;8.288;2023-08-06T09:10:08;1.67;;;1.30;;
9160;SDS011;4615;51.340;8.288;2023-08-06T09:12:36;1.55;;;1.17;;
9160;SDS011;4615;51.340;8.288;2023-08-06T09:15:03;2.30;;;1.20;;
9160;SDS011;4615;51.340;8.288;2023-08-06T09:17:29;1.73;;;1.45;;
9160;SDS011;4615;51.340;8.288;2023-08-06T09:19:56;1.48;;;1.27;;
9160;SDS011;4615;51.340;8.288;2023-08-06T09:22:24;1.98;;;1.40;;
9160;SDS011;4615;51.340;8.288;2023-08-06T09:24:51;2.17;;;1.50;;
9160;SDS011;4615;51.340;8.288;2023-08-06T09:27:17;1.83;;;1.40;;
9160;SDS011;4615;51.340;8.288;2023-08-06T09:29:44;3.00;;;1.33;;
9160;SDS011;4615;51.340;8.288;2023-08-06T09:32:10;2.30;;;1.40;;
9160;SDS011;4615;51.340;8.288;2023-08-06T09:34:38;3.47;;;1.45;;
9160;SDS011;4615;51.340;8.288;2023-08-06T09:37:04;1.48;;;1.30;;
9160;SDS011;4615;51.340;8.288;2023-08-06T09:39:32;2.03;;;1.50;;
9160;SDS011;4615;51.340;8.288;2023-08-06T09:41:59;4.20;;;1.77;;
9160;SDS011;4615;51.340;8.288;2023-08-06T09:44:26;1.40;;;1.30;;
9160;SDS011;4615;51.340;8.288;2023-08-06T09:46:53;1.48;;;1.20;;
9160;SDS011;4615;51.340;8.288;2023-08-06T09:49:21;1.48;;;1.38;;
9160;SDS011;4615;51.340;8.288;2023-08-06T09:51:47;1.60;;;1.30;;
9160;SDS011;4615;51.340;8.288;2023-08-06T09:54:16;1.55;;;1.30;;
9160;SDS011;4615;51.340;8.288;2023-08-06T09:56:44;1.40;;;1.30;;
9160;SDS011;4615;51.340;8.288;2023-08-06T09:59:10;1.20;;;1.10;;
9160;SDS011;4615;51.340;8.288;2023-08-06T10:01:37;1.33;;;1.23;;
9160;SDS011;4615;51.340;8.288;2023-08-06T10:04:05;1.25;;;1.15;;
9160;SDS011;4615;51.340;8.288;2023-08-06T10:06:33;1.50;;;1.40;;
9160;SDS011;4615;51.340;8.288;2023-08-06T10:08:59;1.98;;;1.27;;
9160;SDS011;4615;51.340;8.288;2023-08-06T10:11:26;1.48;;;1.00;;
9160;SDS011;4615;51.340;8.288;2023-08-06T10:13:56;1.30;;;1.20;;
9160;SDS011;4615;51.340;8.288;2023-08-06T10:16:24;1.60;;;1.50;;
9160;SDS011;4615;51.340;8.288;2023-08-06T10:18:51;1.83;;;1.48;;
9160;SDS011;4615;51.340;8.288;2023-08-06T10:21:18;2.17;;;1.30;;
9160;SDS011;4615;51.340;8.288;2023-08-06T10:23:48;1.65;;;1.40;;
9160;SDS011;4615;51.340;8.288;2023-08-06T10:26:19;1.73;;;1.33;;
9160;SDS011;4615;51.340;8.288;2023-08-06T10:28:45;2.22;;;1.60;;
9160;SDS011;4615;51.340;8.288;2023-08-06T10:31:13;1.50;;;1.40;;
9160;SDS011;4615;51.340;8.288;2023-08-06T10:33:40;2.80;;;1.80;;
9160;SDS011;4615;51.340;8.288;2023-08-06T10:36:08;1.73;;;1.50;;
9160;SDS011;4615;51.340;8.288;2023-08-06T10:38:35;1.77;;;1.55;;
9160;SDS011;4615;51.340;8.288;2023-08-06T10:41:09;1.88;;;1.65;;
9160;SDS011;4615;51.340;8.288;2023-08-06T10:43:40;3.42;;;1.70;;
9160;SDS011;4615;51.340;8.288;2023-08-06T10:46:10;2.15;;;1.50;;
9160;SDS011;4615;51.340;8.288;2023-08-06T10:48:38;2.42;;;1.63;;
9160;SDS011;4615;51.340;8.288;2023-08-06T10:51:06;2.17;;;1.73;;
9160;SDS011;4615;51.340;8.288;2023-08-06T10:53:33;1.50;;;1.40;;
9160;SDS011;4615;51.340;8.288;2023-08-06T10:55:59;3.13;;;1.60;;
9160;SDS011;4615;51.340;8.288;2023-08-06T10:58:26;1.63;;;1.50;;
9160;SDS011;4615;51.340;8.288;2023-08-06T11:00:52;2.00;;;1.63;;
9160;SDS011;4615;51.340;8.288;2023-08-06T11:03:18;1.40;;;1.30;;
9160;SDS011;4615;51.340;8.288;2023-08-06T11:05:49;1.25;;;1.10;;
9160;SDS011;4615;51.340;8.288;2023-08-06T11:08:22;1.20;;;1.10;;
9160;SDS011;4615;51.340;8.288;2023-08-06T11:10:49;1.20;;;1.10;;
9160;SDS011;4615;51.340;8.288;2023-08-06T11:13:16;1.20;;;1.10;;
9160;SDS011;4615;51.340;8.288;2023-08-06T11:15:43;1.08;;;0.95;;
9160;SDS011;4615;51.340;8.288;2023-08-06T11:18:09;1.50;;;1.40;;
9160;SDS011;4615;51.340;8.288;2023-08-06T11:20:36;1.70;;;1.10;;
9160;SDS011;4615;51.340;8.288;2023-08-06T11:23:03;3.75;;;1.42;;
9160;SDS011;4615;51.340;8.288;2023-08-06T11:25:30;1.98;;;1.50;;
9160;SDS011;4615;51.340;8.288;2023-08-06T11:27:57;2.88;;;1.58;;
9160;SDS011;4615;51.340;8.288;2023-08-06T11:30:23;1.88;;;1.60;;
9160;SDS011;4615;51.340;8.288;2023-08-06T11:32:49;1.50;;;1.40;;
9160;SDS011;4615;51.340;8.288;2023-08-06T11:35:16;3.40;;;1.43;;
9160;SDS011;4615;51.340;8.288;2023-08-06T11:37:43;3.10;;;1.70;;
9160;SDS011;4615;51.340;8.288;2023-08-06T11:40:11;3.13;;;1.70;;
9160;SDS011;4615;51.340;8.288;2023-08-06T11:42:38;2.80;;;1.80;;
9160;SDS011;4615;51.340;8.288;2023-08-06T11:45:04;2.83;;;1.80;;
9160;SDS011;4615;51.340;8.288;2023-08-06T11:47:31;3.35;;;1.70;;
9160;SDS011;4615;51.340;8.288;2023-08-06T11:49:57;2.75;;;1.90;;
9160;SDS011;4615;51.340;8.288;2023-08-06T11:52:24;3.60;;;1.63;;
9160;SDS011;4615;51.340;8.288;2023-08-06T11:55:00;2.73;;;1.70;;
9160;SDS011;4615;51.340;8.288;2023-08-06T11:57:30;3.95;;;1.95;;
9160;SDS011;4615;51.340;8.288;2023-08-06T12:00:01;2.47;;;2.00;;
9160;SDS011;4615;51.340;8.288;2023-08-06T12:02:30;1.83;;;1.73;;
9160;SDS011;4615;51.340;8.288;2023-08-06T12:04:59;1.70;;;1.58;;
9160;SDS011;4615;51.340;8.288;2023-08-06T12:07:26;1.80;;;1.52;;
9160;SDS011;4615;51.340;8.288;2023-08-06T12:09:53;1.90;;;1.50;;
9160;SDS011;4615;51.340;8.288;2023-08-06T12:12:21;4.63;;;2.60;;
9160;SDS011;4615;51.340;8.288;2023-08-06T12:14:48;4.10;;;1.90;;
9160;SDS011;4615;51.340;8.288;2023-08-06T12:17:15;4.22;;;2.30;;
9160;SDS011;4615;51.340;8.288;2023-08-06T12:19:41;2.25;;;1.77;;
9160;SDS011;4615;51.340;8.288;2023-08-06T12:22:07;2.60;;;1.90;;
9160;SDS011;4615;51.340;8.288;2023-08-06T12:24:34;3.00;;;1.80;;
9160;SDS011;4615;51.340;8.288;2023-08-06T12:27:00;3.20;;;1.92;;
9160;SDS011;4615;51.340;8.288;2023-08-06T12:29:28;3.10;;;1.80;;
9160;SDS011;4615;51.340;8.288;2023-08-06T12:31:55;2.97;;;1.90;;
9160;SDS011;4615;51.340;8.288;2023-08-06T12:34:22;1.50;;;1.40;;
9160;SDS011;4615;51.340;8.288;2023-08-06T12:36:49;1.83;;;1.70;;
9160;SDS011;4615;51.340;8.288;2023-08-06T12:39:15;1.70;;;1.60;;
9160;SDS011;4615;51.340;8.288;2023-08-06T12:41:41;2.00;;;1.57;;
9160;SDS011;4615;51.340;8.288;2023-08-06T12:44:08;2.15;;;1.65;;
9160;SDS011;4615;51.340;8.288;2023-08-06T12:46:35;2.20;;;1.70;;
9160;SDS011;4615;51.340;8.288;2023-08-06T12:49:02;3.20;;;2.00;;
9160;SDS011;4615;51.340;8.288;2023-08-06T12:51:29;2.83;;;1.80;;
9160;SDS011;4615;51.340;8.288;2023-08-06T12:53:55;1.85;;;1.60;;
9160;SDS011;4615;51.340;8.288;2023-08-06T12:56:22;1.88;;;1.50;;
9160;SDS011;4615;51.340;8.288;2023-08-06T12:58:48;1.83;;;1.60;;
9160;SDS011;4615;51.340;8.288;2023-08-06T13:01:14;1.80;;;1.60;;
9160;SDS011;4615;51.340;8.288;2023-08-06T13:03:41;2.47;;;1.70;;
9160;SDS011;4615;51.340;8.288;2023-08-06T13:06:09;1.77;;;1.45;;
9160;SDS011;4615;51.340;8.288;2023-08-06T13:08:36;1.77;;;1.55;;
9160;SDS011;4615;51.340;8.288;2023-08-06T13:11:02;1.60;;;1.50;;
9160;SDS011;4615;51.340;8.288;2023-08-06T13:13:29;1.73;;;1.50;;
9160;SDS011;4615;51.340;8.288;2023-08-06T13:15:55;2.20;;;1.70;;
9160;SDS011;4615;51.340;8.288;2023-08-06T13:18:22;2.70;;;1.70;;
9160;SDS011;4615;51.340;8.288;2023-08-06T13:20:48;2.20;;;1.60;;
9160;SDS011;4615;51.340;8.288;2023-08-06T13:23:18;1.92;;;1.50;;
9160;SDS011;4615;51.340;8.288;2023-08-06T13:25:45;2.35;;;1.80;;
9160;SDS011;4615;51.340;8.288;2023-08-06T13:28:11;2.63;;;2.43;;
9160;SDS011;4615;51.340;8.288;2023-08-06T13:30:39;2.30;;;1.80;;
9160;SDS011;4615;51.340;8.288;2023-08-06T13:33:07;2.20;;;1.80;;
9160;SDS011;4615;51.340;8.288;2023-08-06T13:35:33;1.60;;;1.50;;
9160;SDS011;4615;51.340;8.288;2023-08-06T13:37:59;1.75;;;1.65;;
9160;SDS011;4615;51.340;8.288;2023-08-06T13:40:29;3.55;;;1.90;;
9160;SDS011;4615;51.340;8.288;2023-08-06T13:42:56;1.83;;;1.73;;
9160;SDS011;4615;51.340;8.288;2023-08-06T13:45:22;1.95;;;1.77;;
9160;SDS011;4615;51.340;8.288;2023-08-06T13:47:50;3.30;;;1.90;;
9160;SDS011;4615;51.340;8.288;2023-08-06T13:50:18;3.20;;;2.03;;
9160;SDS011;4615;51.340;8.288;2023-08-06T13:52:47;3.03;;;2.10;;
9160;SDS011;4615;51.340;8.288;2023-08-06T13:55:13;10.23;;;5.55;;
9160;SDS011;4615;51.340;8.288;2023-08-06T13:57:41;7.57;;;6.88;;
9160;SDS011;4615;51.340;8.288;2023-08-06T14:00:08;5.78;;;5.28;;
9160;SDS011;4615;51.340;8.288;2023-08-06T14:02:34;5.38;;;4.88;;
9160;SDS011;4615;51.340;8.288;2023-08-06T14:05:02;5.20;;;4.50;;
9160;SDS011;4615;51.340;8.288;2023-08-06T14:07:28;4.60;;;4.18;;
9160;SDS011;4615;51.340;8.288;2023-08-06T14:09:55;4.00;;;3.70;;
9160;SDS011;4615;51.340;8.288;2023-08-06T14:12:23;4.90;;;3.90;;
9160;SDS011;4615;51.340;8.288;2023-08-06T14:14:50;4.35;;;3.70;;
9160;SDS011;4615;51.340;8.288;2023-08-06T14:17:17;3.75;;;3.45;;
9160;SDS011;4615;51.340;8.288;2023-08-06T14:19:43;3.25;;;2.95;;
9160;SDS011;4615;51.340;8.288;2023-08-06T14:22:10;2.78;;;2.58;;
9160;SDS011;4615;51.340;8.288;2023-08-06T14:24:37;2.85;;;2.65;;
9160;SDS011;4615;51.340;8.288;2023-08-06T14:27:04;2.40;;;2.20;;
9160;SDS011;4615;51.340;8.288;2023-08-06T14:29:31;2.60;;;2.28;;
9160;SDS011;4615;51.340;8.288;2023-08-06T14:31:59;2.22;;;2.03;;
9160;SDS011;4615;51.340;8.288;2023-08-06T14:34:25;1.83;;;1.73;;
9160;SDS011;4615;51.340;8.288;2023-08-06T14:36:54;1.63;;;1.52;;
9160;SDS011;4615;51.340;8.288;2023-08-06T14:39:20;1.92;;;1.73;;
9160;SDS011;4615;51.340;8.288;2023-08-06T14:41:46;1.55;;;1.40;;
9160;SDS011;4615;51.340;8.288;2023-08-06T14:44:13;1.60;;;1.50;;
9160;SDS011;4615;51.340;8.288;2023-08-06T14:46:39;1.60;;;1.50;;
9160;SDS011;4615;51.340;8.288;2023-08-06T14:49:07;1.40;;;1.30;;
9160;SDS011;4615;51.340;8.288;2023-08-06T14:51:34;1.70;;;1.50;;
9160;SDS011;4615;51.340;8.288;2023-08-06T14:54:00;1.40;;;1.30;;
9160;SDS011;4615;51.340;8.288;2023-08-06T14:56:26;1.40;;;1.30;;
9160;SDS011;4615;51.340;8.288;2023-08-06T14:58:53;1.45;;;1.20;;
9160;SDS011;4615;51.340;8.288;2023-08-06T15:01:19;1.23;;;1.02;;
9160;SDS011;4615;51.340;8.288;2023-08-06T15:03:45;1.27;;;1.20;;
9160;SDS011;4615;51.340;8.288;2023-08-06T15:06:13;1.00;;;1.00;;
9160;SDS011;4615;51.340;8.288;2023-08-06T15:08:43;1.03;;;1.00;;
9160;SDS011;4615;51.340;8.288;2023-08-06T15:11:12;0.90;;;0.90;;
9160;SDS011;4615;51.340;8.288;2023-08-06T15:13:39;0.93;;;0.90;;